Time;durP1;ratioP1;P1;durP2;ratioP2;P2;SDS_P1;SDS_P2;PMS_P1;PMS_P2;Temp;Humidity;BMP_temperature;BMP_pressure;BME280_temperature;BME280_humidity;BME280_pressure;Samples;Min_cycle;Max_cycle;Signal;HPM_P1;HPM_P2
2022/03/09 05:12:02;;;;;;;36.40;16.52;;;;;;;-1.88;78.26;100970.75;5562985;32;260174;-86
2022/03/09 05:15:09;;;;;;;39.03;16.58;;;;;;;-1.95;78.46;100985.38;5552551;32;34547;-83
2022/03/09 05:18:12;;;;;;;37.92;16.73;;;;;;;-1.90;76.94;100983.72;5550807;32;32463;-83
2022/03/09 05:21:15;;;;;;;36.50;16.87;;;;;;;-1.88;77.23;100978.53;5551608;32;33888;-83
2022/03/09 05:24:17;;;;;;;34.03;16.62;;;;;;;-1.83;77.22;100976.84;5551496;32;34575;-83
2022/03/09 05:27:20;;;;;;;37.20;17.23;;;;;;;-1.80;76.99;100987.28;5551714;32;35063;-83
2022/03/09 05:30:23;;;;;;;31.65;15.95;;;;;;;-1.74;76.38;100978.69;5551860;32;33823;-83
2022/03/09 05:33:27;;;;;;;34.55;16.45;;;;;;;-1.54;75.58;100971.97;5552304;32;34317;-83
2022/03/09 05:36:30;;;;;;;31.20;16.15;;;;;;;-1.47;75.29;100972.03;5550834;32;34544;-83
2022/03/09 05:39:33;;;;;;;32.53;15.65;;;;;;;-1.42;74.32;100971.19;5550973;32;34032;-83
2022/03/09 05:42:37;;;;;;;32.90;14.82;;;;;;;-1.33;72.78;100983.44;5551652;32;34667;-82
2022/03/09 05:45:40;;;;;;;32.58;16.17;;;;;;;-1.28;72.31;100984.34;5553085;32;33903;-82
2022/03/09 05:48:43;;;;;;;30.75;15.85;;;;;;;-1.18;71.89;100995.72;5552446;32;36351;-82
2022/03/09 05:51:46;;;;;;;29.63;15.38;;;;;;;-1.12;68.70;101013.13;5552919;32;34551;-82
2022/03/09 05:54:48;;;;;;;31.40;15.20;;;;;;;-0.98;67.38;101027.16;5551562;32;32341;-83
2022/03/09 05:57:51;;;;;;;31.15;15.13;;;;;;;-0.95;67.37;101029.75;5551898;32;34341;-81
2022/03/09 06:00:53;;;;;;;29.60;15.50;;;;;;;-0.89;67.42;101030.69;5551140;32;33890;-82
2022/03/09 06:03:57;;;;;;;28.60;14.80;;;;;;;-0.80;67.42;101032.50;5551480;32;34749;-82
2022/03/09 06:07:02;;;;;;;29.37;16.27;;;;;;;-0.74;67.36;101033.41;5553792;32;34895;-82
2022/03/09 06:10:05;;;;;;;30.73;15.25;;;;;;;-0.61;67.38;101031.75;5551132;32;34079;-82
2022/03/09 06:13:08;;;;;;;29.95;15.95;;;;;;;-0.47;67.00;101036.19;5552130;32;34781;-82
2022/03/09 06:16:11;;;;;;;30.60;15.52;;;;;;;-0.35;66.26;101035.41;5551498;32;33377;-82
2022/03/09 06:19:17;;;;;;;28.33;14.50;;;;;;;-0.12;65.35;101032.91;5552475;32;34082;-82
2022/03/09 06:22:20;;;;;;;30.45;15.93;;;;;;;-0.17;65.45;101042.44;5528218;32;32663;-83
2022/03/09 06:25:23;;;;;;;31.05;15.50;;;;;;;-0.08;64.97;101037.31;5519862;32;34152;-82
2022/03/09 06:28:29;;;;;;;27.73;16.25;;;;;;;-0.02;63.99;101039.94;5534158;32;34634;-81
2022/03/09 06:31:32;;;;;;;40.75;16.83;;;;;;;0.08;63.81;101027.81;5538785;32;33916;-83
2022/03/09 06:34:35;;;;;;;30.92;15.73;;;;;;;0.03;63.98;101026.03;5534520;32;34343;-83
2022/03/09 06:37:37;;;;;;;32.22;17.12;;;;;;;0.10;64.19;101023.44;5520018;32;34274;-83
2022/03/09 06:40:41;;;;;;;32.80;16.92;;;;;;;0.16;64.49;101034.78;5525305;32;33884;-82
2022/03/09 06:43:44;;;;;;;37.80;16.77;;;;;;;0.29;64.35;101043.53;5538881;32;33473;-83
2022/03/09 06:46:47;;;;;;;39.60;17.33;;;;;;;0.48;63.65;101047.97;5530229;32;33344;-82
2022/03/09 06:49:50;;;;;;;33.22;17.83;;;;;;;0.66;63.21;101036.66;5528772;32;33797;-83
2022/03/09 06:52:53;;;;;;;33.85;17.45;;;;;;;0.87;61.75;101042.81;5538266;32;32752;-82
2022/03/09 06:55:55;;;;;;;33.17;17.25;;;;;;;0.97;61.01;101050.66;5545775;32;34903;-82
2022/03/09 06:58:58;;;;;;;32.30;16.70;;;;;;;1.19;60.13;101038.47;5538548;32;33683;-82
2022/03/09 07:02:01;;;;;;;29.87;15.88;;;;;;;1.75;58.33;101047.13;5536565;32;34283;-82
2022/03/09 07:05:05;;;;;;;31.90;16.90;;;;;;;1.64;57.37;101051.50;5538389;32;34201;-82
2022/03/09 07:08:11;;;;;;;36.28;17.05;;;;;;;1.84;56.60;101045.34;5538518;32;34638;-83
2022/03/09 07:11:14;;;;;;;34.33;17.05;;;;;;;2.05;56.23;101061.88;5532136;32;32311;-83
2022/03/09 07:14:16;;;;;;;32.92;16.65;;;;;;;1.87;56.97;101068.91;5534023;32;32922;-83
2022/03/09 07:17:20;;;;;;;32.17;17.70;;;;;;;1.75;57.32;101077.63;5528281;32;33430;-83
2022/03/09 07:20:23;;;;;;;31.62;16.42;;;;;;;1.88;56.94;101081.09;5530656;32;32402;-89
2022/03/09 07:23:26;;;;;;;30.58;17.27;;;;;;;2.08;56.40;101073.19;5532115;32;33200;-89
2022/03/09 07:26:29;;;;;;;32.15;17.40;;;;;;;1.96;56.64;101063.63;5535288;32;32290;-88
2022/03/09 07:29:32;;;;;;;30.48;17.25;;;;;;;2.34;55.92;101038.19;5536484;32;34350;-83
2022/03/09 07:32:36;;;;;;;36.17;17.35;;;;;;;2.76;54.38;101029.22;5527213;32;34176;-83
2022/03/09 07:35:56;;;;;;;32.92;18.00;;;;;;;3.36;52.78;101027.84;5522481;32;32881;-83
2022/03/09 07:38:58;;;;;;;32.42;18.08;;;;;;;3.45;52.83;101030.41;5526135;32;34098;-82
2022/03/09 07:42:16;;;;;;;32.92;17.02;;;;;;;3.44;53.17;101046.16;5536522;32;34267;-82
2022/03/09 07:45:18;;;;;;;30.40;18.00;;;;;;;3.20;53.93;101033.25;5531268;32;33844;-80
2022/03/09 07:48:21;;;;;;;34.85;17.65;;;;;;;3.12;54.17;101036.81;5531346;32;33767;-83
2022/03/09 07:51:24;;;;;;;33.13;17.67;;;;;;;2.88;54.11;101034.38;5535570;32;32213;-82
2022/03/09 07:54:27;;;;;;;35.80;19.12;;;;;;;2.92;54.44;101035.22;5520847;32;35155;-83
2022/03/09 07:57:30;;;;;;;40.63;19.42;;;;;;;2.97;54.94;101042.16;5520178;32;35167;-83
2022/03/09 08:00:34;;;;;;;36.42;18.48;;;;;;;2.81;54.96;101044.03;5535630;32;34311;-83
2022/03/09 08:03:39;;;;;;;34.95;19.87;;;;;;;2.91;55.04;101026.47;5534151;32;34248;-83
2022/03/09 08:06:44;;;;;;;32.22;18.15;;;;;;;3.22;54.36;101018.38;5531161;32;33133;-83
2022/03/09 08:09:49;;;;;;;33.50;17.77;;;;;;;3.15;54.48;101021.06;5529034;32;33901;-83
2022/03/09 08:12:52;;;;;;;32.97;18.12;;;;;;;2.95;54.06;101019.47;5536245;32;34063;-83
2022/03/09 08:15:55;;;;;;;33.95;18.23;;;;;;;3.02;53.88;101018.53;5537021;32;33239;-83
2022/03/09 08:18:57;;;;;;;34.03;18.25;;;;;;;3.33;53.07;101004.31;5537999;32;35231;-83
2022/03/09 08:22:11;;;;;;;31.30;17.95;;;;;;;4.18;50.88;100999.87;5535189;32;35091;-84
2022/03/09 08:25:14;;;;;;;36.08;20.20;;;;;;;4.06;50.70;101000.88;5534373;32;33937;-83
2022/03/09 08:28:18;;;;;;;35.63;19.17;;;;;;;5.13;48.35;100991.41;5536726;32;34258;-83
2022/03/09 08:31:21;;;;;;;37.28;18.70;;;;;;;6.34;44.88;100992.66;5536180;32;33943;-83
2022/03/09 08:34:24;;;;;;;28.75;16.77;;;;;;;6.00;45.29;101002.09;5533766;32;33345;-83
2022/03/09 08:37:26;;;;;;;31.62;16.95;;;;;;;6.53;43.88;100993.09;5533902;32;35301;-82
2022/03/09 08:40:30;;;;;;;29.12;17.20;;;;;;;7.91;41.02;100987.84;5526594;32;34208;-82
2022/03/09 08:43:32;;;;;;;27.77;17.30;;;;;;;8.85;38.60;100983.25;5537119;32;34273;-82
2022/03/09 08:46:35;;;;;;;30.77;17.40;;;;;;;9.65;36.71;100982.28;5538603;32;34765;-82
2022/03/09 08:49:39;;;;;;;27.30;16.83;;;;;;;9.61;36.78;100978.00;5530787;32;32701;-83
2022/03/09 08:52:47;;;;;;;26.60;17.10;;;;;;;9.44;37.16;100975.97;5522182;32;33887;-83
2022/03/09 08:55:49;;;;;;;30.70;17.17;;;;;;;8.19;38.94;100982.59;5535105;32;34965;-83
2022/03/09 08:58:52;;;;;;;26.75;17.27;;;;;;;7.67;40.32;100977.94;5534545;32;34315;-83
2022/03/09 09:01:57;;;;;;;26.73;16.50;;;;;;;7.74;40.87;100977.75;5529902;32;32832;-84
2022/03/09 09:05:00;;;;;;;25.67;16.50;;;;;;;7.89;40.13;100977.31;5533987;32;32690;-88
2022/03/09 09:08:05;;;;;;;29.12;17.05;;;;;;;9.08;38.37;100973.66;5524168;32;32850;-87
2022/03/09 09:11:09;;;;;;;29.48;18.02;;;;;;;8.96;37.86;100972.31;5511938;32;33286;-88
2022/03/09 09:14:12;;;;;;;30.42;17.60;;;;;;;8.73;38.65;100963.34;5515527;32;32670;-83
2022/03/09 09:17:22;;;;;;;28.85;17.10;;;;;;;8.94;38.76;100966.22;5510742;32;34259;-83
2022/03/09 09:20:39;;;;;;;36.80;17.08;;;;;;;8.42;39.58;100962.53;5523089;32;33551;-82
2022/03/09 09:23:43;;;;;;;29.15;18.02;;;;;;;8.80;39.25;100962.22;5525658;32;33615;-82
2022/03/09 09:26:46;;;;;;;30.27;16.80;;;;;;;9.19;39.94;100960.94;5519153;32;34086;-82
2022/03/09 09:29:58;;;;;;;28.50;17.35;;;;;;;9.17;38.29;100960.13;5521667;32;33975;-81
2022/03/09 09:33:08;;;;;;;28.38;17.80;;;;;;;9.62;37.83;100969.16;5517744;32;34148;-81
2022/03/09 09:36:11;;;;;;;26.75;17.30;;;;;;;9.33;39.04;100967.53;5528545;32;33304;-82
2022/03/09 09:39:16;;;;;;;33.35;17.52;;;;;;;9.22;38.16;100975.84;5530657;32;32508;-83
2022/03/09 09:42:21;;;;;;;28.12;16.35;;;;;;;8.14;40.28;100973.09;5520849;32;34689;-82
2022/03/09 09:45:43;;;;;;;31.23;17.80;;;;;;;7.84;40.43;100968.63;5533199;32;33064;-83
2022/03/09 09:48:47;;;;;;;27.27;17.80;;;;;;;8.23;41.13;100968.38;5534179;32;33677;-82
2022/03/09 09:51:51;;;;;;;31.58;15.98;;;;;;;9.00;39.50;100964.22;5537494;32;32814;-83
2022/03/09 09:54:56;;;;;;;26.80;16.55;;;;;;;10.47;38.08;100954.47;5544473;32;33879;-83
2022/03/09 09:58:00;;;;;;;28.85;16.37;;;;;;;10.54;36.54;100956.91;5545784;32;34024;-82
2022/03/09 10:01:03;;;;;;;25.98;16.30;;;;;;;8.80;38.66;100956.09;5539938;32;33544;-83
2022/03/09 10:04:08;;;;;;;27.95;15.73;;;;;;;10.58;37.13;100955.84;5524420;32;32854;-83
2022/03/09 10:07:11;;;;;;;28.85;15.23;;;;;;;10.73;36.35;100957.03;5528577;32;33857;-83
2022/03/09 10:10:18;;;;;;;22.40;14.93;;;;;;;11.82;35.13;100955.87;5538911;32;34449;-82
2022/03/09 10:13:35;;;;;;;28.15;14.48;;;;;;;12.45;33.04;100955.66;5539229;32;34322;-85
2022/03/09 10:17:01;;;;;;;24.17;13.73;;;;;;;12.71;35.02;100957.06;5520408;32;32706;-89
2022/03/09 10:20:10;;;;;;;28.33;14.20;;;;;;;12.37;32.56;100945.41;5518074;32;34382;-86
2022/03/09 10:23:16;;;;;;;22.67;14.52;;;;;;;12.64;33.95;100945.87;5532514;32;33493;-85
2022/03/09 10:26:18;;;;;;;23.77;13.88;;;;;;;12.25;33.45;100944.19;5542667;32;35060;-85
2022/03/09 10:29:21;;;;;;;25.12;15.20;;;;;;;12.19;34.49;100939.16;5526662;32;34001;-85
2022/03/09 10:32:52;;;;;;;28.75;14.75;;;;;;;11.62;34.49;100935.50;5534074;32;34712;-85
2022/03/09 10:35:55;;;;;;;23.17;14.98;;;;;;;10.55;36.73;100929.47;5540733;32;33653;-84
2022/03/09 10:39:12;;;;;;;18.02;12.20;;;;;;;10.23;37.47;100928.00;5555716;32;34120;-84
2022/03/09 10:42:23;;;;;;;20.90;14.27;;;;;;;10.88;36.39;100927.19;5547784;32;34330;-83
2022/03/09 10:45:26;;;;;;;23.52;13.88;;;;;;;12.17;34.50;100914.44;5529625;32;32420;-83
2022/03/09 10:48:50;;;;;;;21.73;14.20;;;;;;;13.15;32.78;100913.16;5559109;32;33616;-84
2022/03/09 10:51:53;;;;;;;20.73;13.93;;;;;;;13.18;33.14;100899.66;5540468;32;32688;-85
2022/03/09 10:55:23;;;;;;;19.65;13.48;;;;;;;15.69;28.83;100895.28;5545981;32;34106;-85
2022/03/09 10:58:26;;;;;;;22.77;15.48;;;;;;;14.31;31.40;100890.97;5534611;32;32255;-83
2022/03/09 11:01:29;;;;;;;25.23;14.98;;;;;;;12.79;32.53;100901.63;5548454;32;34325;-83
2022/03/09 11:04:32;;;;;;;24.25;15.43;;;;;;;13.16;31.94;100896.22;5541272;32;34423;-90
2022/03/09 11:07:37;;;;;;;21.17;14.55;;;;;;;10.85;36.29;100884.84;5540005;32;34365;-88
2022/03/09 11:10:41;;;;;;;25.08;16.02;;;;;;;9.93;37.88;100891.19;5546290;32;33974;-89
2022/03/09 11:13:46;;;;;;;24.58;16.50;;;;;;;10.18;38.46;100890.22;5531818;32;33153;-84
2022/03/09 11:16:50;;;;;;;24.77;15.80;;;;;;;10.52;37.64;100880.06;5528071;32;32764;-84
2022/03/09 11:19:54;;;;;;;23.25;16.20;;;;;;;13.41;32.41;100878.06;5552245;32;33940;-84
2022/03/09 11:22:56;;;;;;;25.80;16.00;;;;;;;14.11;31.04;100871.63;5551382;32;34629;-84
2022/03/09 11:26:19;;;;;;;26.15;16.40;;;;;;;14.99;30.02;100870.16;5550055;32;34905;-86
2022/03/09 11:29:35;;;;;;;24.40;14.75;;;;;;;13.69;31.57;100866.78;5535909;32;35072;-85
2022/03/09 11:32:38;;;;;;;24.40;15.50;;;;;;;12.12;34.38;100854.34;5538022;32;32519;-84
2022/03/09 11:35:41;;;;;;;22.42;12.95;;;;;;;11.86;34.68;100869.75;5541716;32;32697;-85
2022/03/09 11:38:45;;;;;;;20.95;13.18;;;;;;;11.82;34.17;100867.31;5546651;32;33601;-85
2022/03/09 11:41:47;;;;;;;21.45;13.23;;;;;;;12.18;34.56;100861.19;5548513;32;34940;-85
2022/03/09 11:44:52;;;;;;;17.35;12.32;;;;;;;14.20;31.43;100846.22;5556005;32;34428;-85
2022/03/09 11:48:11;;;;;;;12.75;9.50;;;;;;;14.56;29.80;100845.03;5550339;32;33981;-85
2022/03/09 11:51:17;;;;;;;11.77;8.77;;;;;;;12.60;32.02;100844.94;5553856;32;33954;-85
2022/03/09 11:54:44;;;;;;;17.12;10.23;;;;;;;12.33;32.76;100840.94;5537134;32;34584;-86
2022/03/09 11:58:08;;;;;;;11.77;9.30;;;;;;;11.48;34.45;100837.84;5541307;32;34245;-87
2022/03/09 12:01:11;;;;;;;13.00;8.48;;;;;;;11.84;34.28;100834.41;5523120;32;34091;-86
2022/03/09 12:04:36;;;;;;;11.20;8.15;;;;;;;11.38;34.51;100834.75;5538928;32;33827;-86
2022/03/09 12:07:38;;;;;;;10.52;8.05;;;;;;;10.98;34.69;100829.44;5533626;32;32840;-86
2022/03/09 12:11:08;;;;;;;15.35;8.45;;;;;;;11.36;34.48;100823.31;5532231;32;32509;-85
2022/03/09 12:14:10;;;;;;;12.02;8.35;;;;;;;11.72;33.78;100819.03;5545391;32;34127;-85
2022/03/09 12:17:30;;;;;;;11.93;9.70;;;;;;;11.35;34.55;100821.59;5522068;32;32677;-85
2022/03/09 12:20:37;;;;;;;12.93;8.75;;;;;;;11.17;35.16;100813.53;5538243;32;32422;-86
2022/03/09 12:24:06;;;;;;;13.52;9.32;;;;;;;11.27;34.50;100821.94;5544243;32;34133;-85
2022/03/09 12:27:22;;;;;;;15.43;10.10;;;;;;;11.84;33.93;100828.22;5515186;32;34300;-85
2022/03/09 12:30:37;;;;;;;14.27;10.15;;;;;;;12.04;33.74;100818.44;5541560;32;34069;-85
2022/03/09 12:33:47;;;;;;;18.75;11.75;;;;;;;12.05;34.17;100815.72;5550928;32;34302;-86
2022/03/09 12:36:50;;;;;;;18.70;11.85;;;;;;;11.41;35.46;100821.31;5548107;32;33993;-86
2022/03/09 12:39:57;;;;;;;16.05;11.82;;;;;;;10.94;36.48;100822.53;5545763;32;34749;-86
2022/03/09 12:43:00;;;;;;;15.85;10.88;;;;;;;10.89;36.98;100822.75;5545246;32;33343;-84
2022/03/09 12:46:03;;;;;;;14.25;10.23;;;;;;;10.93;36.81;100810.22;5541028;32;34614;-85
2022/03/09 12:49:12;;;;;;;15.38;10.73;;;;;;;11.36;36.16;100819.81;5530636;32;34319;-84
2022/03/09 12:52:17;;;;;;;15.68;11.50;;;;;;;10.90;36.92;100818.28;5533649;32;34137;-86
2022/03/09 12:55:24;;;;;;;14.27;9.88;;;;;;;9.92;38.72;100823.16;5532854;32;34257;-85
2022/03/09 12:58:27;;;;;;;18.02;10.45;;;;;;;10.04;38.94;100816.53;5521268;32;32520;-84
2022/03/09 13:01:30;;;;;;;15.18;9.40;;;;;;;10.62;37.62;100817.69;5548999;32;33952;-86
2022/03/09 13:04:34;;;;;;;14.25;9.43;;;;;;;10.96;36.63;100811.88;5549290;32;34699;-85
2022/03/09 13:07:37;;;;;;;14.77;9.65;;;;;;;10.58;37.57;100815.25;5540439;32;33716;-84
2022/03/09 13:10:49;;;;;;;17.75;9.60;;;;;;;10.82;36.90;100804.50;5550355;32;37070;-84
2022/03/09 13:13:54;;;;;;;16.08;9.93;;;;;;;10.96;36.66;100810.06;5542612;32;34413;-85
2022/03/09 13:17:01;;;;;;;13.55;9.20;;;;;;;11.03;36.82;100795.56;5540615;32;33981;-85
2022/03/09 13:20:06;;;;;;;17.37;9.02;;;;;;;11.02;36.64;100788.53;5539833;32;34431;-85
2022/03/09 13:23:25;;;;;;;13.10;9.00;;;;;;;11.13;36.16;100800.47;5546091;32;34296;-85
2022/03/09 13:26:40;;;;;;;13.00;8.57;;;;;;;11.10;36.02;100787.34;5549492;32;35011;-84
2022/03/09 13:29:46;;;;;;;15.13;9.00;;;;;;;10.32;37.29;100791.50;5543369;32;34617;-85
2022/03/09 13:32:49;;;;;;;12.40;8.98;;;;;;;10.53;37.30;100791.59;5549362;32;34492;-85
2022/03/09 13:35:52;;;;;;;11.52;8.13;;;;;;;10.52;36.95;100787.22;5548190;32;34707;-84
2022/03/09 13:38:57;;;;;;;13.25;8.35;;;;;;;10.48;36.85;100786.47;5556541;32;33867;-84
2022/03/09 13:42:03;;;;;;;12.00;7.93;;;;;;;10.52;37.07;100779.25;5559995;32;32718;-84
2022/03/09 13:45:18;;;;;;;10.55;7.72;;;;;;;10.37;37.43;100783.38;5550507;32;35150;-84
2022/03/09 13:48:26;;;;;;;13.13;8.18;;;;;;;10.20;37.76;100776.13;5552160;32;33848;-84
2022/03/09 13:51:33;;;;;;;13.60;8.07;;;;;;;10.55;37.17;100780.91;5564704;32;35447;-84
2022/03/09 13:54:44;;;;;;;12.52;7.55;;;;;;;10.29;37.77;100770.44;5551765;32;34366;-84
2022/03/09 13:57:58;;;;;;;12.80;7.78;;;;;;;10.08;38.34;100774.84;5548756;32;34745;-84
2022/03/09 14:01:07;;;;;;;10.48;7.80;;;;;;;10.40;38.03;100775.28;5551294;32;34424;-89
2022/03/09 14:04:11;;;;;;;9.75;7.62;;;;;;;10.37;38.15;100776.28;5538230;32;34041;-85
2022/03/09 14:07:15;;;;;;;11.57;7.78;;;;;;;10.61;37.69;100773.53;5553897;32;34441;-86
2022/03/09 14:10:26;;;;;;;13.38;7.47;;;;;;;10.68;37.77;100766.19;5554696;32;33944;-86
2022/03/09 14:13:29;;;;;;;14.25;7.87;;;;;;;10.40;37.95;100777.94;5551173;32;33881;-85
2022/03/09 14:16:34;;;;;;;11.88;8.60;;;;;;;10.44;38.07;100771.63;5545287;32;33775;-85
2022/03/09 14:19:37;;;;;;;13.13;8.57;;;;;;;9.73;39.58;100780.66;5536490;32;34028;-86
2022/03/09 14:22:45;;;;;;;15.65;9.45;;;;;;;9.60;40.29;100768.84;5541260;32;33533;-85
2022/03/09 14:25:48;;;;;;;13.62;8.85;;;;;;;9.60;40.58;100771.47;5549129;32;34623;-85
2022/03/09 14:28:51;;;;;;;11.68;8.75;;;;;;;9.35;40.94;100775.06;5555772;32;35302;-86
2022/03/09 14:31:54;;;;;;;13.15;9.00;;;;;;;9.11;41.46;100772.44;5540640;32;35040;-86
2022/03/09 14:34:57;;;;;;;12.77;8.50;;;;;;;9.31;41.21;100784.94;5538694;32;34016;-86
2022/03/09 14:38:00;;;;;;;11.98;8.52;;;;;;;9.28;41.05;100782.37;5536520;32;36302;-86
2022/03/09 14:41:03;;;;;;;11.93;8.75;;;;;;;9.30;40.88;100778.75;5544035;32;34303;-86
2022/03/09 14:44:08;;;;;;;11.38;8.38;;;;;;;9.21;41.22;100776.44;5542851;32;34681;-85
2022/03/09 14:47:11;;;;;;;12.02;8.20;;;;;;;9.24;41.13;100783.41;5537630;32;34644;-85
2022/03/09 14:50:15;;;;;;;14.23;9.20;;;;;;;9.11;41.18;100777.72;5542289;32;34127;-86
2022/03/09 14:53:19;;;;;;;13.80;9.13;;;;;;;9.11;41.63;100780.38;5549043;32;34515;-85
2022/03/09 14:56:25;;;;;;;14.87;10.40;;;;;;;9.25;41.73;100778.06;5539875;32;34204;-85
2022/03/09 14:59:28;;;;;;;17.60;10.68;;;;;;;9.22;42.26;100772.91;5544669;32;34840;-85
2022/03/09 15:02:31;;;;;;;16.83;9.95;;;;;;;9.14;42.71;100774.94;5549573;32;33828;-85
2022/03/09 15:05:34;;;;;;;12.88;9.60;;;;;;;8.90;43.43;100781.09;5558943;32;33562;-86
2022/03/09 15:08:37;;;;;;;18.25;10.27;;;;;;;9.10;43.12;100779.50;5549886;32;33775;-84
2022/03/09 15:11:40;;;;;;;14.63;10.38;;;;;;;8.88;43.71;100792.66;5552425;32;34412;-83
2022/03/09 15:14:43;;;;;;;12.02;9.70;;;;;;;8.67;44.08;100779.28;5531741;32;33884;-84
2022/03/09 15:17:45;;;;;;;13.38;9.23;;;;;;;8.73;44.08;100787.00;5556032;32;33979;-84
2022/03/09 15:20:49;;;;;;;15.98;10.15;;;;;;;8.75;43.83;100787.81;5532769;32;33761;-83
2022/03/09 15:23:52;;;;;;;13.73;9.88;;;;;;;8.98;43.31;100783.47;5540114;32;34640;-83
2022/03/09 15:26:54;;;;;;;19.60;10.70;;;;;;;8.72;44.02;100782.63;5553978;32;34072;-83
2022/03/09 15:29:57;;;;;;;15.82;10.40;;;;;;;8.60;44.06;100788.34;5557966;32;34377;-85
2022/03/09 15:33:00;;;;;;;15.73;10.15;;;;;;;8.64;44.30;100789.97;5562479;32;33767;-84
2022/03/09 15:36:03;;;;;;;22.08;10.35;;;;;;;8.54;44.28;100788.56;5556633;32;35365;-84
2022/03/09 15:39:07;;;;;;;17.30;10.50;;;;;;;8.55;44.38;100783.19;5536907;32;34682;-84
2022/03/09 15:42:10;;;;;;;15.02;9.70;;;;;;;8.75;43.87;100784.31;5539619;32;34653;-84
2022/03/09 15:45:13;;;;;;;17.50;10.95;;;;;;;8.66;43.87;100788.12;5525724;32;33445;-84
2022/03/09 15:48:16;;;;;;;18.83;10.77;;;;;;;8.43;44.64;100788.88;5553129;32;34087;-84
2022/03/09 15:51:20;;;;;;;15.55;10.40;;;;;;;8.39;44.58;100779.34;5575308;32;34439;-85
2022/03/09 15:54:24;;;;;;;17.12;10.90;;;;;;;8.28;44.67;100787.62;5574435;32;33988;-84
2022/03/09 15:57:26;;;;;;;16.98;10.43;;;;;;;8.21;44.86;100785.19;5566762;32;33978;-84
2022/03/09 16:00:30;;;;;;;14.82;10.43;;;;;;;8.12;45.03;100793.44;5554942;32;34392;-89
2022/03/09 16:03:36;;;;;;;16.00;10.93;;;;;;;8.13;44.99;100794.28;5555684;32;34156;-89
2022/03/09 16:06:39;;;;;;;18.42;11.38;;;;;;;8.08;45.03;100795.31;5557219;32;33943;-88
2022/03/09 16:09:42;;;;;;;16.85;10.95;;;;;;;8.06;44.90;100791.00;5558133;32;33902;-84
2022/03/09 16:12:44;;;;;;;16.55;10.90;;;;;;;8.08;45.01;100800.59;5555966;32;34396;-84
2022/03/09 16:15:47;;;;;;;18.33;11.45;;;;;;;7.93;45.52;100794.03;5555673;32;34790;-84
2022/03/09 16:18:51;;;;;;;17.48;11.70;;;;;;;7.76;45.84;100791.06;5555492;32;34526;-84
2022/03/09 16:21:55;;;;;;;18.20;11.12;;;;;;;7.75;45.95;100792.81;5549086;32;34516;-84
2022/03/09 16:24:58;;;;;;;16.80;11.05;;;;;;;7.86;45.86;100792.50;5555422;32;33954;-85
2022/03/09 16:28:01;;;;;;;18.92;11.20;;;;;;;7.81;46.09;100791.78;5555208;32;34384;-84
2022/03/09 16:31:05;;;;;;;17.02;10.73;;;;;;;7.71;46.15;100798.25;5559058;32;34300;-84
2022/03/09 16:34:08;;;;;;;16.95;10.68;;;;;;;7.67;46.32;100798.34;5563192;32;34252;-84
